createdAt,value
2022-08-05T00:00:20.169Z,99.90
2022-08-05T00:02:51.472Z,99.90
2022-08-05T00:06:03.096Z,99.90
2022-08-05T00:08:32.990Z,99.90
2022-08-05T00:11:04.324Z,99.90
2022-08-05T00:13:39.979Z,99.90
2022-08-05T00:16:12.864Z,99.90
2022-08-05T00:18:44.432Z,99.90
2022-08-05T00:21:14.831Z,99.90
2022-08-05T00:24:05.174Z,99.90
2022-08-05T00:26:35.636Z,99.90
2022-08-05T00:29:04.876Z,99.90
2022-08-05T00:31:41.504Z,99.90
2022-08-05T00:34:56.059Z,99.90
2022-08-05T00:37:14.332Z,99.90
2022-08-05T00:39:57.806Z,99.90
2022-08-05T00:42:37.343Z,99.90
2022-08-05T00:45:11.655Z,99.90
2022-08-05T00:47:56.570Z,99.90
2022-08-05T00:50:27.027Z,99.90
2022-08-05T00:52:57.496Z,99.90
2022-08-05T00:55:42.202Z,99.90
2022-08-05T00:58:13.987Z,99.90
2022-08-05T01:00:44.409Z,99.90
2022-08-05T01:03:22.558Z,99.90
2022-08-05T01:05:54.518Z,99.90
2022-08-05T01:08:40.846Z,99.90
2022-08-05T01:11:22.110Z,99.90
2022-08-05T01:14:03.126Z,99.90
2022-08-05T01:16:38.003Z,99.90
2022-08-05T01:19:30.112Z,99.90
2022-08-05T01:22:28.257Z,99.90
2022-08-05T01:25:40.739Z,99.90
2022-08-05T01:28:26.507Z,99.90
2022-08-05T01:31:01.578Z,99.90
2022-08-05T01:33:37.578Z,99.90
2022-08-05T01:36:12.988Z,99.90
2022-08-05T01:38:49.911Z,99.90
2022-08-05T01:41:25.770Z,99.90
2022-08-05T01:43:57.958Z,99.90
2022-08-05T01:46:42.984Z,99.90
2022-08-05T01:49:23.420Z,99.90
2022-08-05T01:51:58.849Z,99.90
2022-08-05T01:54:34.129Z,99.90
2022-08-05T01:58:10.034Z,99.90
2022-08-05T02:00:13.257Z,99.90
2022-08-05T02:02:54.392Z,99.90
2022-08-05T02:05:28.550Z,99.90
2022-08-05T02:08:01.360Z,99.90
2022-08-05T02:10:38.822Z,99.90
2022-08-05T02:13:20.489Z,99.90
2022-08-05T02:15:59.448Z,99.90
2022-08-05T02:18:35.009Z,99.90
2022-08-05T02:21:14.978Z,99.90
2022-08-05T02:23:47.166Z,99.90
2022-08-05T02:26:23.202Z,99.90
2022-08-05T02:28:58.343Z,99.90
2022-08-05T02:31:34.632Z,99.90
2022-08-05T02:34:11.992Z,99.90
2022-08-05T02:36:45.412Z,99.90
2022-08-05T02:39:21.525Z,99.90
2022-08-05T02:42:00.486Z,99.90
2022-08-05T02:44:32.579Z,99.90
2022-08-05T02:47:05.087Z,99.90
2022-08-05T02:49:40.599Z,99.90
2022-08-05T02:52:13.656Z,99.90
2022-08-05T02:55:01.587Z,99.90
2022-08-05T02:58:10.177Z,99.90
2022-08-05T03:00:25.454Z,99.90
2022-08-05T03:02:59.727Z,99.90
2022-08-05T03:06:55.096Z,99.90
2022-08-05T03:08:26.872Z,99.90
2022-08-05T03:11:47.611Z,99.90
2022-08-05T03:13:51.532Z,99.90
2022-08-05T03:16:31.856Z,99.90
2022-08-05T03:19:12.983Z,99.90
2022-08-05T03:21:48.668Z,99.90
2022-08-05T03:24:26.856Z,99.90
2022-08-05T03:27:00.210Z,99.90
2022-08-05T03:29:45.733Z,99.90
2022-08-05T03:32:20.668Z,99.90
2022-08-05T03:34:51.774Z,99.90
2022-08-05T03:37:22.815Z,99.90
2022-08-05T03:39:59.096Z,99.90
2022-08-05T03:42:32.478Z,99.90
2022-08-05T03:45:21.476Z,99.90
2022-08-05T03:47:57.119Z,99.90
2022-08-05T03:50:35.707Z,99.90
2022-08-05T03:55:51.626Z,99.90
2022-08-05T03:56:17.201Z,99.90
2022-08-05T03:58:56.843Z,99.90
2022-08-05T04:01:28.714Z,99.90
2022-08-05T04:04:09.996Z,99.90
2022-08-05T04:06:47.975Z,99.90
2022-08-05T04:09:26.605Z,99.90
2022-08-05T04:11:57.163Z,99.90
2022-08-05T04:14:29.836Z,99.90
2022-08-05T04:17:02.142Z,99.90
2022-08-05T04:19:32.798Z,99.90
2022-08-05T04:22:10.323Z,99.90
2022-08-05T04:24:44.189Z,99.90
2022-08-05T04:27:15.209Z,99.90
2022-08-05T04:29:44.877Z,99.90
2022-08-05T04:32:14.682Z,99.90
2022-08-05T04:34:48.957Z,99.90
2022-08-05T04:37:20.071Z,99.90
2022-08-05T04:39:52.966Z,99.90
2022-08-05T04:42:25.371Z,99.90
2022-08-05T04:44:56.027Z,99.90
2022-08-05T04:47:25.517Z,99.90
2022-08-05T04:50:01.756Z,99.90
2022-08-05T04:52:34.477Z,99.90
2022-08-05T04:55:14.491Z,99.90
2022-08-05T04:57:47.505Z,99.90
2022-08-05T05:00:17.748Z,99.90
2022-08-05T05:02:46.737Z,99.90
2022-08-05T05:05:26.333Z,99.90
2022-08-05T05:08:02.992Z,99.90
2022-08-05T05:10:33.685Z,99.90
2022-08-05T05:13:04.573Z,99.90
2022-08-05T05:15:57.927Z,99.90
2022-08-05T05:18:28.746Z,99.90
2022-08-05T05:21:03.936Z,99.90
2022-08-05T05:23:39.088Z,99.90
2022-08-05T05:26:28.460Z,99.90
2022-08-05T05:29:10.052Z,99.90
2022-08-05T05:31:46.370Z,99.90
2022-08-05T05:34:18.992Z,99.90
2022-08-05T05:36:52.878Z,99.90
2022-08-05T05:39:23.488Z,99.90
2022-08-05T05:41:54.768Z,99.90
2022-08-05T05:44:36.455Z,99.90
2022-08-05T05:47:21.330Z,99.90
2022-08-05T05:50:01.314Z,99.90
2022-08-05T05:52:34.716Z,99.90
2022-08-05T05:55:13.679Z,99.90
2022-08-05T05:57:52.568Z,99.90
2022-08-05T06:00:31.605Z,99.90
2022-08-05T06:03:39.583Z,99.90
2022-08-05T06:05:56.690Z,99.90
2022-08-05T06:08:32.274Z,99.90
2022-08-05T06:11:04.220Z,99.90
2022-08-05T06:13:40.521Z,99.90
2022-08-05T06:16:30.596Z,99.90
2022-08-05T06:19:02.202Z,99.90
2022-08-05T06:21:37.575Z,99.90
2022-08-05T06:24:11.609Z,99.90
2022-08-05T06:26:51.784Z,99.90
2022-08-05T06:29:23.808Z,99.90
2022-08-05T06:32:24.822Z,99.90
2022-08-05T06:34:57.192Z,99.90
2022-08-05T06:37:56.407Z,99.90
2022-08-05T06:40:21.061Z,99.90
2022-08-05T06:42:53.985Z,99.90
2022-08-05T06:45:44.853Z,99.90
2022-08-05T06:48:54.780Z,99.90
2022-08-05T06:51:02.077Z,99.90
2022-08-05T06:53:39.293Z,99.90
2022-08-05T06:56:26.341Z,99.90
2022-08-05T06:58:59.413Z,99.90
2022-08-05T07:01:32.257Z,99.90
2022-08-05T07:04:03.270Z,99.90
2022-08-05T07:06:32.556Z,99.90
2022-08-05T07:09:04.351Z,99.90
2022-08-05T07:11:37.113Z,99.90
2022-08-05T07:14:29.675Z,99.90
2022-08-05T07:17:59.180Z,99.90
2022-08-05T07:22:43.452Z,99.90
2022-08-05T07:25:23.118Z,99.90
2022-08-05T07:28:05.960Z,99.90
2022-08-05T07:30:41.349Z,99.90
2022-08-05T07:33:16.636Z,99.90
2022-08-05T07:36:03.694Z,99.90
2022-08-05T07:38:43.315Z,99.90
2022-08-05T07:42:14.383Z,99.80
2022-08-05T07:44:14.258Z,99.90
2022-08-05T07:46:52.208Z,99.90
2022-08-05T07:49:23.614Z,99.80
2022-08-05T07:51:54.861Z,99.20
2022-08-05T07:54:31.329Z,98.00
2022-08-05T07:57:17.996Z,98.30
2022-08-05T07:59:53.656Z,98.10
2022-08-05T08:03:14.730Z,99.30
2022-08-05T08:05:22.106Z,98.90
2022-08-05T08:07:59.145Z,98.10
2022-08-05T08:10:31.416Z,96.20
2022-08-05T08:13:01.850Z,96.20
2022-08-05T08:16:33.309Z,95.50
2022-08-05T08:18:23.286Z,95.50
2022-08-05T08:21:01.937Z,95.60
2022-08-05T08:24:01.970Z,94.10
2022-08-05T08:26:27.094Z,93.90
2022-08-05T08:29:09.681Z,92.70
2022-08-05T08:31:50.073Z,88.70
2022-08-05T08:34:30.196Z,90.30
2022-08-05T08:37:05.119Z,91.90
2022-08-05T08:39:37.400Z,91.50
2022-08-05T08:42:33.670Z,87.40
2022-08-05T08:45:19.288Z,84.60
2022-08-05T08:48:11.743Z,82.40
2022-08-05T08:51:23.113Z,80.40
2022-08-05T08:53:45.065Z,77.40
2022-08-05T08:56:15.903Z,79.10
2022-08-05T08:58:48.615Z,75.30
2022-08-05T09:01:19.192Z,72.60
2022-08-05T09:03:54.567Z,73.50
2022-08-05T09:06:36.288Z,73.50
2022-08-05T09:09:06.126Z,70.30
2022-08-05T09:11:52.612Z,66.20
2022-08-05T09:14:58.633Z,65.40
2022-08-05T09:17:41.417Z,62.50
2022-08-05T09:20:06.014Z,58.80
2022-08-05T09:23:09.730Z,55.30
2022-08-05T09:26:03.412Z,51.30
2022-08-05T09:28:35.367Z,55.80
2022-08-05T09:31:22.387Z,52.10
2022-08-05T09:34:04.736Z,52.80
2022-08-05T09:36:45.693Z,51.80
2022-08-05T09:39:41.661Z,47.40
2022-08-05T09:42:24.557Z,45.40
2022-08-05T09:45:17.273Z,45.00
2022-08-05T09:47:56.189Z,47.20
2022-08-05T09:50:44.197Z,47.00
2022-08-05T09:53:25.639Z,43.40
2022-08-05T09:56:04.917Z,41.70
2022-08-05T09:58:42.616Z,42.30
2022-08-05T10:01:31.610Z,42.10
2022-08-05T10:04:10.280Z,42.50
2022-08-05T10:06:54.926Z,44.80
2022-08-05T10:09:30.270Z,43.30
2022-08-05T10:12:30.671Z,43.40
2022-08-05T10:15:17.326Z,44.60
2022-08-05T10:18:12.824Z,42.10
2022-08-05T10:20:47.961Z,44.30
2022-08-05T10:23:34.730Z,46.80
2022-08-05T10:26:14.210Z,38.00
2022-08-05T10:28:48.381Z,37.90
2022-08-05T10:32:54.654Z,36.10
2022-08-05T10:34:08.493Z,35.80
2022-08-05T10:36:39.341Z,36.30
2022-08-05T10:39:24.014Z,39.30
2022-08-05T10:42:04.666Z,35.90
2022-08-05T10:44:36.617Z,35.50
2022-08-05T10:47:26.645Z,34.90
2022-08-05T10:50:33.096Z,36.00
2022-08-05T10:53:00.363Z,38.10
2022-08-05T10:55:38.561Z,40.80
2022-08-05T10:58:21.792Z,36.90
2022-08-05T11:01:09.622Z,36.00
2022-08-05T11:04:02.664Z,35.50
2022-08-05T11:06:33.676Z,37.20
2022-08-05T11:09:24.158Z,35.40
2022-08-05T11:12:03.309Z,37.50
2022-08-05T11:15:01.153Z,34.90
2022-08-05T11:17:57.417Z,35.40
2022-08-05T11:20:51.724Z,36.90
2022-08-05T11:23:56.912Z,35.70
2022-08-05T11:26:32.243Z,35.40
2022-08-05T11:29:12.146Z,34.60
2022-08-05T11:31:54.030Z,35.90
2022-08-05T11:34:50.945Z,34.50
2022-08-05T11:38:27.824Z,34.10
2022-08-05T11:41:34.329Z,34.00
2022-08-05T11:44:07.400Z,33.30
2022-08-05T11:47:09.634Z,32.40
2022-08-05T11:49:33.982Z,33.40
2022-08-05T11:52:08.826Z,33.10
2022-08-05T11:54:41.818Z,32.70
2022-08-05T11:57:24.785Z,33.20
2022-08-05T11:59:55.959Z,34.80
2022-08-05T12:02:32.995Z,32.90
2022-08-05T12:05:06.839Z,33.90
2022-08-05T12:08:03.398Z,35.60
2022-08-05T12:10:43.018Z,32.40
2022-08-05T12:13:47.634Z,32.90
2022-08-05T12:16:14.580Z,33.50
2022-08-05T12:18:48.720Z,32.60
2022-08-05T12:21:26.979Z,32.60
2022-08-05T12:24:07.070Z,33.80
2022-08-05T12:26:38.323Z,34.60
2022-08-05T12:29:11.861Z,34.00
2022-08-05T12:31:53.179Z,32.60
2022-08-05T12:34:26.941Z,30.60
2022-08-05T12:36:57.818Z,32.10
2022-08-05T12:39:37.469Z,31.90
2022-08-05T12:42:14.415Z,30.00
2022-08-05T12:44:47.531Z,31.60
2022-08-05T12:47:30.611Z,31.20
2022-08-05T12:50:06.012Z,31.40
2022-08-05T12:52:38.861Z,30.40
2022-08-05T12:55:25.220Z,32.30
2022-08-05T12:58:49.053Z,32.30
2022-08-05T13:02:00.873Z,32.30
2022-08-05T13:03:43.100Z,31.60
2022-08-05T13:06:18.021Z,30.60
2022-08-05T13:08:52.027Z,31.00
2022-08-05T13:11:59.634Z,31.70
2022-08-05T13:14:24.957Z,31.30
2022-08-05T13:17:25.073Z,29.90
2022-08-05T13:20:04.788Z,30.00
2022-08-05T13:22:36.149Z,30.30
2022-08-05T13:25:19.283Z,30.10
2022-08-05T13:27:54.052Z,30.40
2022-08-05T13:30:34.683Z,31.20
2022-08-05T13:33:05.977Z,31.00
2022-08-05T13:35:47.317Z,32.10
2022-08-05T13:38:30.878Z,30.50
2022-08-05T13:41:06.490Z,30.00
2022-08-05T13:43:45.858Z,29.80
2022-08-05T13:49:14.169Z,31.80
2022-08-05T13:51:46.332Z,30.20
2022-08-05T13:54:20.830Z,30.00
2022-08-05T13:56:54.168Z,30.50
2022-08-05T13:59:27.232Z,31.00
2022-08-05T14:02:01.778Z,30.30
2022-08-05T14:04:51.810Z,30.00
2022-08-05T14:07:25.634Z,31.40
2022-08-05T14:10:19.056Z,32.30
2022-08-05T14:12:57.925Z,32.00
2022-08-05T14:16:04.490Z,30.70
2022-08-05T14:18:23.230Z,30.00
2022-08-05T14:20:54.468Z,30.80
2022-08-05T14:23:37.285Z,29.70
2022-08-05T14:26:06.860Z,31.10
2022-08-05T14:28:35.742Z,30.00
2022-08-05T14:32:03.858Z,30.50
2022-08-05T14:34:12.446Z,30.30
2022-08-05T14:36:43.154Z,31.20
2022-08-05T14:39:23.112Z,31.40
2022-08-05T14:42:19.497Z,31.70
2022-08-05T14:44:42.682Z,31.70
2022-08-05T14:48:03.700Z,31.10
2022-08-05T14:50:17.425Z,31.50
2022-08-05T14:52:53.431Z,31.10
2022-08-05T14:55:38.610Z,32.90
2022-08-05T14:58:12.125Z,32.50
2022-08-05T15:00:59.725Z,32.20
2022-08-05T15:03:33.684Z,33.70
2022-08-05T15:06:12.796Z,33.00
2022-08-05T15:08:59.292Z,33.10
2022-08-05T15:11:51.844Z,32.90
2022-08-05T15:14:34.247Z,33.50
2022-08-05T15:17:45.770Z,35.00
2022-08-05T15:20:02.903Z,36.90
2022-08-05T15:22:37.522Z,35.10
2022-08-05T15:25:11.619Z,37.80
2022-08-05T15:27:51.783Z,38.20
2022-08-05T15:30:21.536Z,40.00
2022-08-05T15:32:52.056Z,38.90
2022-08-05T15:35:24.177Z,35.80
2022-08-05T15:38:34.491Z,37.60
2022-08-05T15:41:20.780Z,37.90
2022-08-05T15:43:45.915Z,36.40
2022-08-05T15:46:16.572Z,38.70
2022-08-05T15:48:54.798Z,36.20
2022-08-05T15:52:09.676Z,39.60
2022-08-05T15:54:34.382Z,36.20
2022-08-05T15:57:07.545Z,36.60
2022-08-05T15:59:38.410Z,38.80
2022-08-05T16:02:09.567Z,39.20
2022-08-05T16:04:44.204Z,41.90
2022-08-05T16:07:17.948Z,42.90
2022-08-05T16:09:47.645Z,40.20
2022-08-05T16:12:19.800Z,43.60
2022-08-05T16:14:52.741Z,44.60
2022-08-05T16:17:23.904Z,44.00
2022-08-05T16:20:05.041Z,42.90
2022-08-05T16:22:42.116Z,40.40
2022-08-05T16:25:11.687Z,45.70
2022-08-05T16:28:01.063Z,48.10
2022-08-05T16:30:32.748Z,48.90
2022-08-05T16:33:03.291Z,49.50
2022-08-05T16:35:42.501Z,49.90
2022-08-05T16:38:24.700Z,50.10
2022-08-05T16:41:01.270Z,49.90
2022-08-05T16:43:32.653Z,50.80
2022-08-05T16:46:23.628Z,51.20
2022-08-05T16:48:53.573Z,51.50
2022-08-05T16:51:30.745Z,52.40
2022-08-05T16:54:21.838Z,52.50
2022-08-05T16:56:55.058Z,52.80
2022-08-05T16:59:25.383Z,52.80
2022-08-05T17:01:59.236Z,53.20
2022-08-05T17:04:31.419Z,54.40
2022-08-05T17:07:11.605Z,54.60
2022-08-05T17:09:57.506Z,57.20
2022-08-05T17:12:51.584Z,56.70
2022-08-05T17:15:20.950Z,57.30
2022-08-05T17:17:54.534Z,58.30
2022-08-05T17:20:26.890Z,57.80
2022-08-05T17:22:58.755Z,59.40
2022-08-05T17:25:33.755Z,57.70
2022-08-05T17:28:11.182Z,56.90
2022-08-05T17:30:52.115Z,57.50
2022-08-05T17:33:22.190Z,56.50
2022-08-05T17:36:08.619Z,55.40
2022-08-05T17:38:43.025Z,56.70
2022-08-05T17:42:18.567Z,56.80
2022-08-05T17:44:07.230Z,59.20
2022-08-05T17:46:41.643Z,56.00
2022-08-05T17:49:12.766Z,60.00
2022-08-05T17:51:43.783Z,58.90
2022-08-05T17:54:23.271Z,59.50
2022-08-05T17:56:55.020Z,59.80
2022-08-05T17:59:28.706Z,61.50
2022-08-05T18:02:03.139Z,63.30
2022-08-05T18:04:42.271Z,64.80
2022-08-05T18:07:23.312Z,66.30
2022-08-05T18:09:59.584Z,69.00
2022-08-05T18:12:33.962Z,68.70
2022-08-05T18:15:06.274Z,69.60
2022-08-05T18:17:59.135Z,72.30
2022-08-05T18:20:31.526Z,72.20
2022-08-05T18:23:09.081Z,74.50
2022-08-05T18:25:44.737Z,72.50
2022-08-05T18:28:21.899Z,73.90
2022-08-05T18:30:52.881Z,74.40
2022-08-05T18:33:24.186Z,75.30
2022-08-05T18:36:03.588Z,77.10
2022-08-05T18:38:36.669Z,79.00
2022-08-05T18:41:56.228Z,82.00
2022-08-05T18:44:05.764Z,86.20
2022-08-05T18:46:36.421Z,90.60
2022-08-05T18:49:19.632Z,91.60
2022-08-05T18:52:10.875Z,94.80
2022-08-05T18:54:46.055Z,96.70
2022-08-05T18:57:17.968Z,93.10
2022-08-05T19:00:03.061Z,90.20
2022-08-05T19:02:34.093Z,88.50
2022-08-05T19:06:05.696Z,87.40
2022-08-05T19:07:55.692Z,85.50
2022-08-05T19:10:28.557Z,83.40
2022-08-05T19:12:59.245Z,83.40
2022-08-05T19:16:00.235Z,84.00
2022-08-05T19:18:22.945Z,83.80
2022-08-05T19:20:54.892Z,82.90
2022-08-05T19:24:06.102Z,83.20
2022-08-05T19:26:16.894Z,82.00
2022-08-05T19:28:49.531Z,81.40
2022-08-05T19:31:22.994Z,82.00
2022-08-05T19:33:56.264Z,82.00
2022-08-05T19:36:29.241Z,82.50
2022-08-05T19:39:02.024Z,82.00
2022-08-05T19:42:05.984Z,82.60
2022-08-05T19:44:29.209Z,83.10
2022-08-05T19:47:02.691Z,83.50
2022-08-05T19:49:33.283Z,84.20
2022-08-05T19:52:08.546Z,85.00
2022-08-05T19:54:53.483Z,85.30
2022-08-05T19:57:46.516Z,85.90
2022-08-05T20:00:16.223Z,86.50
2022-08-05T20:02:52.055Z,86.90
2022-08-05T20:05:27.095Z,86.90
2022-08-05T20:08:16.074Z,87.40
2022-08-05T20:10:45.634Z,87.80
2022-08-05T20:13:30.272Z,86.90
2022-08-05T20:16:10.544Z,87.40
2022-08-05T20:18:41.889Z,87.40
2022-08-05T20:21:16.914Z,86.70
2022-08-05T20:23:53.293Z,86.70
2022-08-05T20:26:26.571Z,86.70
2022-08-05T20:29:00.655Z,85.40
2022-08-05T20:31:41.975Z,85.20
2022-08-05T20:34:22.678Z,84.40
2022-08-05T20:36:54.110Z,85.10
2022-08-05T20:39:28.317Z,85.20
2022-08-05T20:42:05.890Z,85.80
2022-08-05T20:44:38.059Z,85.80
2022-08-05T20:47:08.729Z,86.10
2022-08-05T20:49:42.797Z,86.90
2022-08-05T20:52:15.281Z,87.30
2022-08-05T20:55:16.076Z,87.40
2022-08-05T20:57:43.806Z,88.10
2022-08-05T21:00:51.830Z,87.90
2022-08-05T21:03:13.490Z,88.80
2022-08-05T21:05:54.558Z,88.50
2022-08-05T21:08:28.095Z,89.50
2022-08-05T21:11:10.138Z,89.20
2022-08-05T21:13:47.776Z,89.80
2022-08-05T21:16:29.691Z,90.10
2022-08-05T21:19:03.727Z,90.40
2022-08-05T21:21:44.216Z,90.40
2022-08-05T21:24:23.017Z,90.20
2022-08-05T21:26:58.080Z,90.50
2022-08-05T21:29:31.343Z,90.70
2022-08-05T21:32:06.760Z,90.90
2022-08-05T21:34:36.545Z,91.30
2022-08-05T21:37:08.431Z,91.20
2022-08-05T21:39:40.625Z,91.70
2022-08-05T21:42:30.783Z,91.50
2022-08-05T21:45:00.395Z,91.40
2022-08-05T21:47:54.848Z,91.10
2022-08-05T21:50:22.176Z,91.20
2022-08-05T21:52:59.105Z,91.10
2022-08-05T21:56:01.758Z,91.20
2022-08-05T21:58:30.839Z,91.40
2022-08-05T22:01:01.839Z,91.80
2022-08-05T22:03:51.854Z,92.50
2022-08-05T22:06:35.283Z,92.60
2022-08-05T22:09:15.386Z,93.10
2022-08-05T22:11:51.511Z,93.40
2022-08-05T22:14:35.011Z,93.70
2022-08-05T22:17:07.694Z,93.80
2022-08-05T22:20:00.580Z,94.10
2022-08-05T22:22:31.900Z,94.20
2022-08-05T22:25:27.346Z,94.10
2022-08-05T22:28:04.827Z,94.10
2022-08-05T22:30:56.116Z,94.20
2022-08-05T22:33:57.387Z,97.20
2022-08-05T22:36:18.691Z,99.90
2022-08-05T22:38:51.178Z,99.90
2022-08-05T22:42:09.898Z,99.90
2022-08-05T22:44:19.147Z,99.90
2022-08-05T22:46:52.094Z,99.90
2022-08-05T22:50:17.611Z,99.90
2022-08-05T22:52:22.930Z,99.90
2022-08-05T22:55:02.222Z,99.90
2022-08-05T22:57:38.787Z,99.90
2022-08-05T23:00:17.839Z,99.90
2022-08-05T23:02:52.667Z,99.90
2022-08-05T23:05:23.829Z,99.90
2022-08-05T23:07:55.026Z,99.90
2022-08-05T23:10:25.850Z,99.90
2022-08-05T23:12:57.914Z,99.90
2022-08-05T23:15:29.999Z,99.90
2022-08-05T23:18:11.848Z,99.90
2022-08-05T23:20:47.633Z,99.90
2022-08-05T23:23:19.936Z,99.90
2022-08-05T23:25:55.346Z,99.90
2022-08-05T23:28:29.511Z,99.90
2022-08-05T23:31:17.200Z,99.90
2022-08-05T23:34:04.953Z,99.90
2022-08-05T23:36:44.517Z,99.90
2022-08-05T23:39:32.243Z,99.90
2022-08-05T23:42:14.482Z,99.90
2022-08-05T23:44:54.435Z,99.90
2022-08-05T23:47:24.947Z,99.90
2022-08-05T23:49:55.660Z,99.90
2022-08-05T23:52:30.830Z,99.90
2022-08-05T23:55:02.636Z,99.90
2022-08-05T23:57:37.327Z,99.90
